Burlington, Canada
Current Conditions -  °F | °C
As of 4:00 PM on Saturday 25 Oct 2014 (Local Time) from CYHM Reporting Station
Broken Clouds Broken Clouds  
Wind Chill: 59°   Ceiling: 3800
Heat Index: 59°   Visibility: 12mi
Dew Point: 48°   Wind: 15mph
Humidity: 67%   Direction: 270°W
Pressure: 29.64"   Gusts: 24mph
Location:  43.33°N, 79.8°W
Report Text: CYHM 252000Z 27013G21KT 12SM SCT028 BKN038 15/09 A2964 RMK CU4SC1 SLP038 DENSITY ALT 1200FT
Loading
Personal Weather Stations






























Interactive Weather Map
Tropical Storm Tracking
New forecast layout! Learn more

10-Day Weather Forecast

Advertisements
Track Severe Weather on mobile